Time;durP1;ratioP1;P1;durP2;ratioP2;P2;SDS_P1;SDS_P2;PMS_P1;PMS_P2;Temp;Humidity;BMP_temperature;BMP_pressure;BME280_temperature;BME280_humidity;BME280_pressure;Samples;Min_cycle;Max_cycle;Signal;HPM_P1;HPM_P2
2021/12/28 00:00:58;;;;;;;;;;;;;;;22.20;28.45;97291.53;4986139;28;1914;-75
2021/12/28 00:03:29;;;;;;;;;;;;;;;21.58;29.27;97291.50;5000262;28;873;-75
2021/12/28 00:05:55;;;;;;;;;;;;;;;21.40;29.82;97292.16;5017360;28;997;-75
2021/12/28 00:08:20;;;;;;;;;;;;;;;22.06;28.24;97292.84;5016945;28;978;-75
2021/12/28 00:10:46;;;;;;;;;;;;;;;21.39;29.53;97281.28;4975811;28;973;-75
2021/12/28 00:13:12;;;;;;;;;;;;;;;21.32;29.80;97279.53;4975809;28;1145;-75
2021/12/28 00:18:21;;;;;;;;;;;;;;;21.53;29.22;97283.59;4975617;28;1031;-75
2021/12/28 00:20:48;;;;;;;;;;;;;;;22.18;27.97;97288.38;4975430;28;1919;-75
2021/12/28 00:23:15;;;;;;;;;;;;;;;21.89;28.70;97293.56;4975433;28;1126;-75
2021/12/28 00:25:41;;;;;;;;;;;;;;;21.89;28.75;97293.56;4975582;28;1036;-74
2021/12/28 00:28:06;;;;;;;;;;;;;;;22.09;28.02;97291.13;4975454;28;941;-75
2021/12/28 00:30:32;;;;;;;;;;;;;;;21.61;29.06;97290.59;4975466;28;1064;-75
2021/12/28 00:32:57;;;;;;;;;;;;;;;22.16;28.32;97285.22;4975774;28;1088;-75
2021/12/28 00:35:24;;;;;;;;;;;;;;;21.68;29.19;97278.97;4975148;28;1043;-75
2021/12/28 00:37:49;;;;;;;;;;;;;;;22.20;28.21;97285.88;4943072;28;1079;-75
2021/12/28 00:40:15;;;;;;;;;;;;;;;21.99;28.11;97284.66;4974980;28;1994;-75
2021/12/28 00:42:41;;;;;;;;;;;;;;;22.26;27.97;97289.66;5011526;28;967;-75
2021/12/28 00:45:09;;;;;;;;;;;;;;;22.29;27.88;97294.41;5016152;28;915;-75
2021/12/28 00:47:35;;;;;;;;;;;;;;;21.55;29.20;97286.75;5016408;28;917;-75
2021/12/28 00:50:00;;;;;;;;;;;;;;;22.19;28.13;97289.97;5016449;28;1131;-75
2021/12/28 00:52:26;;;;;;;;;;;;;;;22.00;28.40;97291.09;5016325;28;1104;-75
2021/12/28 00:54:51;;;;;;;;;;;;;;;21.83;28.54;97291.34;5016513;28;902;-75
2021/12/28 00:57:17;;;;;;;;;;;;;;;21.67;28.98;97293.59;4999099;28;984;-75
2021/12/28 00:59:42;;;;;;;;;;;;;;;22.16;28.12;97288.03;5016822;28;1981;-75
2021/12/28 01:02:07;;;;;;;;;;;;;;;21.97;28.53;97292.03;4981522;28;969;-75
2021/12/28 01:04:33;;;;;;;;;;;;;;;21.89;28.63;97293.56;5016565;28;989;-75
2021/12/28 01:06:58;;;;;;;;;;;;;;;22.36;27.62;97293.31;5016133;28;874;-75
2021/12/28 01:09:30;;;;;;;;;;;;;;;22.10;28.16;97281.38;5016286;28;870;-75
2021/12/28 01:11:56;;;;;;;;;;;;;;;22.17;28.04;97286.78;4998479;28;1144;-75
2021/12/28 01:14:22;;;;;;;;;;;;;;;22.74;26.93;97290.13;4955798;29;972;-75
2021/12/28 01:16:47;;;;;;;;;;;;;;;22.28;27.34;97292.03;4955639;29;1001;-75
2021/12/28 01:19:12;;;;;;;;;;;;;;;21.57;28.93;97278.59;4955600;29;1911;-75
2021/12/28 01:21:38;;;;;;;;;;;;;;;22.08;27.97;97281.06;4955508;29;1018;-75
2021/12/28 01:24:04;;;;;;;;;;;;;;;22.14;27.79;97272.78;4955306;29;1241;-75
2021/12/28 01:26:29;;;;;;;;;;;;;;;21.74;28.42;97276.31;4955467;29;968;-75
2021/12/28 01:28:55;;;;;;;;;;;;;;;21.70;28.49;97270.78;4955516;28;997;-74
2021/12/28 01:31:20;;;;;;;;;;;;;;;22.22;27.65;97274.84;4936119;29;1479;-75
2021/12/28 01:33:45;;;;;;;;;;;;;;;21.71;28.09;97272.41;4920336;29;1002;-75
2021/12/28 01:36:11;;;;;;;;;;;;;;;22.18;27.64;97277.06;4936322;29;1028;-75
2021/12/28 01:38:36;;;;;;;;;;;;;;;21.77;28.14;97270.53;4936481;29;984;-75
2021/12/28 01:41:02;;;;;;;;;;;;;;;22.22;27.63;97269.16;4916798;29;1976;-75
2021/12/28 01:43:27;;;;;;;;;;;;;;;22.36;27.16;97262.94;4917180;29;960;-75
2021/12/28 01:45:54;;;;;;;;;;;;;;;21.96;27.85;97256.44;4930577;29;1048;-74
2021/12/28 01:48:21;;;;;;;;;;;;;;;22.21;27.60;97267.59;4936438;29;970;-75
2021/12/28 01:50:50;;;;;;;;;;;;;;;21.57;28.42;97278.59;4936267;29;1030;-75
2021/12/28 01:53:15;;;;;;;;;;;;;;;21.88;27.93;97275.78;4936248;29;970;-75
2021/12/28 01:55:41;;;;;;;;;;;;;;;22.17;27.51;97281.13;4935946;29;1069;-75
2021/12/28 01:58:06;;;;;;;;;;;;;;;22.20;27.01;97283.03;4906324;29;980;-75
2021/12/28 02:00:32;;;;;;;;;;;;;;;21.73;28.06;97269.88;4939862;29;1911;-74
2021/12/28 02:02:59;;;;;;;;;;;;;;;21.42;28.50;97277.56;4925311;28;994;-75
2021/12/28 02:05:24;;;;;;;;;;;;;;;21.92;27.85;97286.97;4977975;28;992;-75
2021/12/28 02:07:50;;;;;;;;;;;;;;;22.27;26.76;97285.56;4977621;28;984;-75
2021/12/28 02:10:15;;;;;;;;;;;;;;;22.25;27.08;97281.63;4978060;28;994;-75
2021/12/28 02:12:41;;;;;;;;;;;;;;;21.83;27.70;97279.22;4977790;28;1378;-75
2021/12/28 02:15:12;;;;;;;;;;;;;;;21.99;27.32;97281.03;4978175;28;1149;-75
2021/12/28 02:17:37;;;;;;;;;;;;;;;21.64;27.77;97278.31;4967875;28;1067;-75
2021/12/28 02:20:04;;;;;;;;;;;;;;;21.34;28.28;97271.34;5019229;28;1906;-75
2021/12/28 02:22:29;;;;;;;;;;;;;;;21.44;27.85;97263.72;4968550;28;937;-75
2021/12/28 02:24:55;;;;;;;;;;;;;;;22.40;26.29;97264.84;5019298;28;1028;-75
2021/12/28 02:27:20;;;;;;;;;;;;;;;21.81;27.41;97265.53;5000762;28;983;-74
2021/12/28 02:29:46;;;;;;;;;;;;;;;21.98;27.23;97268.13;5018803;28;906;-75
2021/12/28 02:32:11;;;;;;;;;;;;;;;21.25;27.85;97257.91;5019053;28;893;-75
2021/12/28 02:34:37;;;;;;;;;;;;;;;21.73;27.71;97264.22;5001113;28;995;-75
2021/12/28 02:37:02;;;;;;;;;;;;;;;22.08;27.08;97261.25;5018858;28;945;-75
2021/12/28 02:39:27;;;;;;;;;;;;;;;22.34;27.30;97262.63;5018300;28;1979;-75
2021/12/28 02:41:53;;;;;;;;;;;;;;;22.26;27.42;97261.31;5018843;28;897;-75
2021/12/28 02:44:18;;;;;;;;;;;;;;;22.49;27.17;97257.16;5018979;28;922;-75
2021/12/28 02:46:44;;;;;;;;;;;;;;;22.51;27.34;97253.84;5018545;28;948;-75
2021/12/28 02:49:09;;;;;;;;;;;;;;;22.63;27.02;97250.06;5018528;28;988;-75
2021/12/28 02:51:35;;;;;;;;;;;;;;;22.34;27.49;97262.63;4983590;28;980;-75
2021/12/28 02:54:00;;;;;;;;;;;;;;;22.30;27.55;97256.31;5018296;28;970;-74
2021/12/28 02:56:26;;;;;;;;;;;;;;;22.43;27.66;97263.88;5018685;28;1137;-75
2021/12/28 02:58:51;;;;;;;;;;;;;;;22.42;27.13;97263.09;5018311;28;1061;-75
2021/12/28 03:01:21;;;;;;;;;;;;;;;22.24;27.27;97275.19;4957699;29;1990;-75
2021/12/28 03:03:47;;;;;;;;;;;;;;;22.01;27.74;97262.28;4957530;29;1007;-75
2021/12/28 03:06:14;;;;;;;;;;;;;;;22.55;26.45;97268.66;4957834;29;1037;-75
2021/12/28 03:08:41;;;;;;;;;;;;;;;22.39;26.85;97268.94;4937608;29;1115;-74
2021/12/28 03:11:07;;;;;;;;;;;;;;;21.87;27.36;97276.25;4938454;29;994;-75
2021/12/28 03:13:42;;;;;;;;;;;;;;;22.31;26.58;97272.03;4919381;29;1081;-75
2021/12/28 03:16:10;;;;;;;;;;;;;;;22.29;26.84;97277.41;4888081;29;1356;-75
2021/12/28 03:18:36;;;;;;;;;;;;;;;22.78;25.93;97275.78;4903339;29;988;-75
2021/12/28 03:21:01;;;;;;;;;;;;;;;22.79;25.52;97278.13;4903542;29;1915;-75
2021/12/28 03:23:27;;;;;;;;;;;;;;;21.57;27.44;97272.94;4918720;29;1157;-75
2021/12/28 03:25:53;;;;;;;;;;;;;;;21.73;27.17;97272.72;4903313;29;965;-75
2021/12/28 03:28:20;;;;;;;;;;;;;;;21.89;26.92;97263.19;4900065;29;980;-75
2021/12/28 03:30:45;;;;;;;;;;;;;;;22.01;26.54;97261.50;4900304;29;956;-75
2021/12/28 03:33:11;;;;;;;;;;;;;;;22.21;26.62;97270.44;4932847;29;911;-75
2021/12/28 03:35:36;;;;;;;;;;;;;;;22.30;26.15;97272.53;4937876;29;1001;-75
2021/12/28 03:38:04;;;;;;;;;;;;;;;22.32;26.21;97270.00;4938012;29;997;-74
2021/12/28 03:40:29;;;;;;;;;;;;;;;22.39;25.92;97264.06;4938180;29;1910;-75
2021/12/28 03:42:55;;;;;;;;;;;;;;;22.28;26.08;97264.50;4938173;29;946;-75
2021/12/28 03:45:20;;;;;;;;;;;;;;;22.07;26.42;97265.31;4937950;29;1134;-75
2021/12/28 03:47:46;;;;;;;;;;;;;;;22.26;26.27;97267.00;4937608;29;1097;-75
2021/12/28 03:50:11;;;;;;;;;;;;;;;22.54;25.62;97276.38;4944069;28;987;-75
2021/12/28 03:52:37;;;;;;;;;;;;;;;22.50;25.92;97269.28;4976020;28;933;-74
2021/12/28 03:55:03;;;;;;;;;;;;;;;22.92;26.07;97265.91;4975821;28;917;-75
2021/12/28 03:57:29;;;;;;;;;;;;;;;23.28;26.03;97270.78;4975764;28;1006;-75
2021/12/28 03:59:54;;;;;;;;;;;;;;;22.99;26.70;97276.94;5007034;28;1975;-75
2021/12/28 04:02:20;;;;;;;;;;;;;;;21.66;29.19;97273.00;5017008;28;1009;-75
2021/12/28 04:04:45;;;;;;;;;;;;;;;21.72;29.15;97271.13;5017213;28;1095;-75
2021/12/28 04:07:17;;;;;;;;;;;;;;;22.21;28.67;97278.16;5017405;28;867;-75
2021/12/28 04:09:59;;;;;;;;;;;;;;;22.61;27.98;97275.28;5016909;28;863;-75
2021/12/28 04:12:24;;;;;;;;;;;;;;;22.55;27.95;97283.63;5017000;28;1015;-75
2021/12/28 04:14:49;;;;;;;;;;;;;;;21.82;29.00;97284.09;4982374;28;985;-75
2021/12/28 04:17:15;;;;;;;;;;;;;;;21.79;29.37;97301.22;5016959;28;960;-75
2021/12/28 04:19:40;;;;;;;;;;;;;;;22.29;28.35;97304.94;5016547;28;1973;-75
2021/12/28 04:22:06;;;;;;;;;;;;;;;22.09;28.38;97308.16;5017408;28;992;-75
2021/12/28 04:24:34;;;;;;;;;;;;;;;22.31;28.22;97308.88;4957479;28;1469;-75
2021/12/28 04:27:00;;;;;;;;;;;;;;;21.60;29.31;97294.63;4977709;28;931;-74
2021/12/28 04:29:25;;;;;;;;;;;;;;;21.56;29.51;97299.66;4977725;28;918;-75
2021/12/28 04:31:51;;;;;;;;;;;;;;;21.99;28.73;97304.47;4927731;28;969;-75
2021/12/28 04:34:16;;;;;;;;;;;;;;;21.53;29.38;97292.09;4977599;28;969;-75
2021/12/28 04:36:44;;;;;;;;;;;;;;;21.96;28.31;97298.94;4977828;28;880;-75
2021/12/28 04:39:10;;;;;;;;;;;;;;;22.19;28.05;97295.63;4977163;28;1969;-75
2021/12/28 04:41:35;;;;;;;;;;;;;;;21.75;28.68;97295.69;4977671;28;897;-75
2021/12/28 04:44:01;;;;;;;;;;;;;;;22.07;27.93;97299.31;4977159;28;1222;-75
2021/12/28 04:46:30;;;;;;;;;;;;;;;22.39;27.58;97314.28;4977142;28;998;-75
2021/12/28 04:48:55;;;;;;;;;;;;;;;22.47;27.00;97309.88;4977686;28;911;-75
2021/12/28 04:51:22;;;;;;;;;;;;;;;22.42;26.87;97316.94;4977593;28;1003;-75
2021/12/28 04:53:48;;;;;;;;;;;;;;;21.94;27.31;97307.91;4977098;28;886;-75
2021/12/28 04:56:14;;;;;;;;;;;;;;;22.09;27.33;97313.81;4977705;28;955;-75
2021/12/28 04:58:39;;;;;;;;;;;;;;;22.01;27.24;97318.16;4908479;29;978;-75
2021/12/28 05:01:05;;;;;;;;;;;;;;;22.42;26.73;97316.16;4976793;28;1918;-75
2021/12/28 05:03:33;;;;;;;;;;;;;;;22.50;26.50;97314.63;4977297;28;1017;-75
2021/12/28 05:05:59;;;;;;;;;;;;;;;22.39;26.95;97314.28;4977556;28;906;-75
2021/12/28 05:08:24;;;;;;;;;;;;;;;22.61;26.46;97315.75;4977412;28;929;-75
2021/12/28 05:10:50;;;;;;;;;;;;;;;22.16;26.84;97336.22;4960397;28;917;-74
2021/12/28 05:13:15;;;;;;;;;;;;;;;21.95;27.29;97332.13;4976924;28;915;-75
2021/12/28 05:15:45;;;;;;;;;;;;;;;21.90;27.78;97324.25;4977182;28;943;-75
2021/12/28 05:18:16;;;;;;;;;;;;;;;22.04;27.53;97335.03;4977339;28;1063;-75
2021/12/28 05:20:42;;;;;;;;;;;;;;;22.33;26.84;97340.41;4977489;28;1918;-75
2021/12/28 05:23:08;;;;;;;;;;;;;;;22.40;26.70;97355.53;4944097;28;1264;-75
2021/12/28 05:25:33;;;;;;;;;;;;;;;22.63;26.17;97343.63;4996287;28;1102;-75
2021/12/28 05:27:59;;;;;;;;;;;;;;;22.88;26.08;97349.09;4996036;28;936;-75
2021/12/28 05:30:24;;;;;;;;;;;;;;;22.04;26.92;97340.69;4996521;28;917;-75
2021/12/28 05:32:50;;;;;;;;;;;;;;;22.12;26.90;97335.56;4999822;28;962;-75
2021/12/28 05:35:16;;;;;;;;;;;;;;;21.49;28.07;97334.66;5000406;28;920;-75
2021/12/28 05:37:43;;;;;;;;;;;;;;;21.84;27.82;97326.09;4999975;28;767;-75
2021/12/28 05:40:09;;;;;;;;;;;;;;;21.88;27.49;97337.31;5000713;28;1981;-75
2021/12/28 05:42:35;;;;;;;;;;;;;;;21.96;27.24;97333.72;5000201;28;854;-75
2021/12/28 05:45:00;;;;;;;;;;;;;;;22.29;26.81;97336.91;5000393;28;720;-75
2021/12/28 05:47:25;;;;;;;;;;;;;;;22.17;27.19;97334.94;5000314;28;732;-75
2021/12/28 05:49:51;;;;;;;;;;;;;;;22.62;26.24;97330.72;5000033;28;1156;-75
2021/12/28 05:52:16;;;;;;;;;;;;;;;22.23;26.81;97340.84;5000046;28;795;-74
2021/12/28 05:54:42;;;;;;;;;;;;;;;22.40;26.44;97341.38;4939485;29;966;-75
2021/12/28 05:57:07;;;;;;;;;;;;;;;22.42;26.56;97333.97;4940059;29;722;-74
2021/12/28 05:59:33;;;;;;;;;;;;;;;22.24;26.50;97337.53;4920517;29;1907;-75
2021/12/28 06:01:58;;;;;;;;;;;;;;;21.62;27.29;97348.00;4901524;29;989;-75
2021/12/28 06:04:24;;;;;;;;;;;;;;;22.25;26.38;97338.31;4901733;29;967;-74
2021/12/28 06:06:49;;;;;;;;;;;;;;;22.02;26.88;97333.91;4901665;29;856;-75
2021/12/28 06:09:15;;;;;;;;;;;;;;;21.58;27.13;97348.13;4901634;29;777;-75
2021/12/28 06:11:40;;;;;;;;;;;;;;;22.15;26.44;97345.19;4901221;29;811;-75
2021/12/28 06:14:06;;;;;;;;;;;;;;;22.49;25.93;97347.06;4901733;29;935;-75
2021/12/28 06:16:32;;;;;;;;;;;;;;;22.05;26.40;97356.44;4901450;29;942;-75
2021/12/28 06:18:57;;;;;;;;;;;;;;;22.30;26.04;97358.31;4901137;29;885;-75
2021/12/28 06:21:25;;;;;;;;;;;;;;;22.34;25.86;97369.53;4901332;29;1968;-75
2021/12/28 06:23:50;;;;;;;;;;;;;;;22.10;26.06;97374.88;4894603;29;1116;-74
2021/12/28 06:26:16;;;;;;;;;;;;;;;22.27;26.16;97375.47;4910567;29;971;-75
2021/12/28 06:28:44;;;;;;;;;;;;;;;22.36;25.80;97373.47;4919830;29;872;-75
2021/12/28 06:31:09;;;;;;;;;;;;;;;22.40;25.51;97383.88;4919860;29;779;-75
2021/12/28 06:33:35;;;;;;;;;;;;;;;22.05;25.79;97369.81;4934733;29;887;-75
2021/12/28 06:36:05;;;;;;;;;;;;;;;21.36;26.81;97375.63;4939028;29;799;-75
2021/12/28 06:38:30;;;;;;;;;;;;;;;21.53;26.65;97377.00;4938853;29;827;-75
2021/12/28 06:40:59;;;;;;;;;;;;;;;21.75;26.47;97383.47;4938873;29;1979;-75
2021/12/28 06:43:24;;;;;;;;;;;;;;;22.39;25.54;97387.97;4938127;29;1150;-75
2021/12/28 06:45:54;;;;;;;;;;;;;;;21.92;26.06;97377.63;4938963;29;730;-75
2021/12/28 06:48:19;;;;;;;;;;;;;;;22.29;25.42;97379.44;4973145;28;871;-75
2021/12/28 06:50:45;;;;;;;;;;;;;;;22.41;24.74;97385.47;4979817;28;732;-75
2021/12/28 06:53:10;;;;;;;;;;;;;;;22.33;25.00;97379.28;4976421;28;708;-74
2021/12/28 06:55:36;;;;;;;;;;;;;;;21.89;25.52;97372.88;4979026;28;877;-75
2021/12/28 06:58:01;;;;;;;;;;;;;;;22.08;25.44;97375.34;4979516;28;745;-74
2021/12/28 07:00:27;;;;;;;;;;;;;;;22.26;24.95;97380.34;4978973;28;1914;-75
2021/12/28 07:02:53;;;;;;;;;;;;;;;22.08;25.04;97374.56;4979729;28;901;-75
2021/12/28 07:05:19;;;;;;;;;;;;;;;22.00;25.22;97374.03;4979080;28;717;-75
2021/12/28 07:07:44;;;;;;;;;;;;;;;22.35;24.76;97377.56;4979859;28;709;-75
2021/12/28 07:10:09;;;;;;;;;;;;;;;21.95;25.10;97383.13;4960706;28;838;-75
2021/12/28 07:12:35;;;;;;;;;;;;;;;22.01;25.13;97388.97;4979263;28;747;-74
2021/12/28 07:15:00;;;;;;;;;;;;;;;22.11;25.00;97384.97;4979568;28;784;-75
2021/12/28 07:17:27;;;;;;;;;;;;;;;22.36;24.36;97379.13;4979618;28;787;-75
2021/12/28 07:19:53;;;;;;;;;;;;;;;22.23;24.92;97375.63;4979126;28;1915;-74
2021/12/28 07:22:18;;;;;;;;;;;;;;;22.38;24.85;97375.03;4978507;28;1018;-75
2021/12/28 07:24:46;;;;;;;;;;;;;;;22.22;24.73;97379.69;4944557;28;1080;-75
2021/12/28 07:27:11;;;;;;;;;;;;;;;21.91;25.21;97378.84;4979539;28;752;-75
2021/12/28 07:29:37;;;;;;;;;;;;;;;21.38;25.98;97381.59;4979137;28;721;-75
2021/12/28 07:32:03;;;;;;;;;;;;;;;21.49;25.80;97384.84;4978811;28;756;-75
2021/12/28 07:34:31;;;;;;;;;;;;;;;22.10;25.03;97383.38;4978301;28;779;-75
2021/12/28 07:36:56;;;;;;;;;;;;;;;22.33;24.74;97374.41;4978952;28;814;-75
2021/12/28 07:39:21;;;;;;;;;;;;;;;22.27;24.82;97381.91;4960219;28;2001;-75
2021/12/28 07:41:47;;;;;;;;;;;;;;;22.18;24.89;97398.09;4960684;28;959;-75
2021/12/28 07:44:12;;;;;;;;;;;;;;;22.32;25.00;97395.47;4978207;28;744;-75
2021/12/28 07:46:38;;;;;;;;;;;;;;;22.52;24.72;97409.28;4978335;28;1112;-75
2021/12/28 07:49:03;;;;;;;;;;;;;;;22.17;25.03;97411.47;4978317;28;749;-75
2021/12/28 07:51:29;;;;;;;;;;;;;;;22.36;24.83;97412.34;4978046;28;827;-75
2021/12/28 07:53:54;;;;;;;;;;;;;;;22.26;24.96;97414.34;4977763;28;748;-75
2021/12/28 07:56:20;;;;;;;;;;;;;;;22.31;24.57;97410.13;4981290;28;1216;-75
2021/12/28 07:58:46;;;;;;;;;;;;;;;22.12;25.17;97426.22;4997892;28;1027;-74
2021/12/28 08:01:14;;;;;;;;;;;;;;;22.16;25.04;97421.22;4997509;28;1906;-75
2021/12/28 08:03:41;;;;;;;;;;;;;;;21.81;25.48;97421.28;4963588;28;1019;-75
2021/12/28 08:06:06;;;;;;;;;;;;;;;21.54;25.83;97424.66;4997237;28;936;-75
2021/12/28 08:08:32;;;;;;;;;;;;;;;21.89;25.37;97421.81;4997621;28;886;-75
2021/12/28 08:10:57;;;;;;;;;;;;;;;21.76;25.74;97424.72;4997683;28;962;-75
2021/12/28 08:13:23;;;;;;;;;;;;;;;21.75;25.66;97413.81;4963048;28;919;-75
2021/12/28 08:15:48;;;;;;;;;;;;;;;22.21;25.09;97420.63;4997843;28;949;-75
2021/12/28 08:18:14;;;;;;;;;;;;;;;22.24;24.90;97416.88;4997196;28;930;-75
2021/12/28 08:20:39;;;;;;;;;;;;;;;22.46;24.62;97404.69;4997406;28;1898;-75
2021/12/28 08:23:05;;;;;;;;;;;;;;;22.20;24.95;97416.22;4975245;28;1216;-75
2021/12/28 08:25:30;;;;;;;;;;;;;;;22.36;24.62;97404.66;4975699;28;1076;-75
2021/12/28 08:27:57;;;;;;;;;;;;;;;22.26;24.83;97407.91;4975666;28;1171;-75
2021/12/28 08:30:22;;;;;;;;;;;;;;;22.09;24.90;97416.59;4937146;29;954;-75
2021/12/28 08:32:48;;;;;;;;;;;;;;;22.21;25.15;97417.78;4936803;29;1173;-75
2021/12/28 08:35:13;;;;;;;;;;;;;;;22.18;25.07;97413.06;4936988;29;955;-75
2021/12/28 08:37:39;;;;;;;;;;;;;;;22.39;24.83;97410.66;4937034;29;996;-75
2021/12/28 08:40:05;;;;;;;;;;;;;;;22.19;25.07;97402.50;4905149;29;1976;-75
2021/12/28 08:42:30;;;;;;;;;;;;;;;22.12;25.23;97426.22;4937139;29;1046;-75
2021/12/28 08:44:56;;;;;;;;;;;;;;;22.20;25.01;97426.75;4936838;29;947;-75
2021/12/28 08:47:26;;;;;;;;;;;;;;;22.65;25.22;97423.38;4936676;29;1130;-74
2021/12/28 08:49:51;;;;;;;;;;;;;;;22.45;25.49;97437.13;4921280;29;1138;-75
2021/12/28 08:52:17;;;;;;;;;;;;;;;22.33;25.80;97442.44;4898556;29;984;-75
2021/12/28 08:54:42;;;;;;;;;;;;;;;21.61;27.53;97432.13;4884494;29;1055;-75
2021/12/28 08:57:08;;;;;;;;;;;;;;;21.74;27.67;97447.00;4880008;29;1070;-75
2021/12/28 08:59:36;;;;;;;;;;;;;;;22.46;26.35;97435.88;4880342;29;1978;-75
2021/12/28 09:02:02;;;;;;;;;;;;;;;22.10;27.27;97423.88;4924939;29;1139;-75
2021/12/28 09:04:27;;;;;;;;;;;;;;;21.76;27.53;97421.88;4936832;29;1068;-75
2021/12/28 09:06:53;;;;;;;;;;;;;;;22.35;26.66;97405.91;4940169;29;1015;-75
2021/12/28 09:09:18;;;;;;;;;;;;;;;22.26;26.76;97417.19;4943102;29;1038;-74
2021/12/28 09:11:44;;;;;;;;;;;;;;;21.79;27.70;97425.81;4942957;29;1031;-75
2021/12/28 09:14:09;;;;;;;;;;;;;;;21.87;27.69;97437.69;4942941;29;970;-75
2021/12/28 09:16:35;;;;;;;;;;;;;;;22.35;26.72;97428.59;4942680;29;966;-75
2021/12/28 09:19:00;;;;;;;;;;;;;;;22.07;27.09;97418.28;4942667;29;1013;-75
2021/12/28 09:21:33;;;;;;;;;;;;;;;21.82;27.41;97431.34;4942474;29;1983;-75
2021/12/28 09:23:58;;;;;;;;;;;;;;;22.50;26.61;97425.97;4944371;29;1071;-74
2021/12/28 09:26:24;;;;;;;;;;;;;;;22.25;26.61;97412.78;4955713;29;1204;-75
2021/12/28 09:28:49;;;;;;;;;;;;;;;22.40;26.72;97426.41;4964416;28;985;-75
2021/12/28 09:31:15;;;;;;;;;;;;;;;22.55;26.33;97401.91;4981741;28;1017;-74
2021/12/28 09:33:40;;;;;;;;;;;;;;;21.79;27.36;97401.13;4948676;28;996;-75
2021/12/28 09:36:07;;;;;;;;;;;;;;;22.35;26.62;97405.91;4981030;28;1033;-75
2021/12/28 09:38:33;;;;;;;;;;;;;;;21.50;27.96;97394.91;4965427;28;982;-75
2021/12/28 09:40:58;;;;;;;;;;;;;;;21.73;27.50;97400.13;4961420;29;1902;-75
2021/12/28 09:43:24;;;;;;;;;;;;;;;22.19;26.74;97399.69;4961855;28;996;-75
2021/12/28 09:45:49;;;;;;;;;;;;;;;22.22;26.83;97401.56;4961767;28;1074;-75
2021/12/28 09:48:15;;;;;;;;;;;;;;;21.51;27.74;97393.69;4961781;28;988;-75
2021/12/28 09:50:41;;;;;;;;;;;;;;;21.90;27.23;97399.94;4961765;28;1088;-74
2021/12/28 09:53:07;;;;;;;;;;;;;;;22.19;26.54;97397.63;4923183;29;976;-74
2021/12/28 09:55:32;;;;;;;;;;;;;;;22.40;26.54;97395.22;4923754;29;1078;-74
2021/12/28 09:57:58;;;;;;;;;;;;;;;22.10;26.93;97391.88;4910818;29;980;-74
2021/12/28 10:00:23;;;;;;;;;;;;;;;22.33;26.52;97382.91;4923148;29;1895;-74
2021/12/28 10:02:49;;;;;;;;;;;;;;;22.14;26.57;97384.06;4923488;29;1024;-74
2021/12/28 10:05:17;;;;;;;;;;;;;;;22.15;26.78;97385.66;4923121;29;981;-74
2021/12/28 10:07:46;;;;;;;;;;;;;;;22.15;26.57;97382.81;4923633;29;1208;-74
2021/12/28 10:10:11;;;;;;;;;;;;;;;21.95;27.23;97382.34;4923280;29;1059;-74
2021/12/28 10:12:38;;;;;;;;;;;;;;;21.89;27.09;97384.19;4923397;29;938;-74
2021/12/28 10:15:08;;;;;;;;;;;;;;;21.59;27.43;97383.66;4923563;29;2076;-74
2021/12/28 10:17:34;;;;;;;;;;;;;;;22.25;26.30;97384.44;4905452;29;1101;-74
2021/12/28 10:20:00;;;;;;;;;;;;;;;21.38;27.79;97379.56;4920121;29;1962;-74
2021/12/28 10:22:28;;;;;;;;;;;;;;;22.04;26.96;97382.41;4920088;29;981;-75
2021/12/28 10:24:55;;;;;;;;;;;;;;;22.24;26.30;97388.53;4920242;29;1171;-74
2021/12/28 10:27:21;;;;;;;;;;;;;;;22.08;26.55;97391.56;4920255;29;1026;-74
2021/12/28 10:29:46;;;;;;;;;;;;;;;22.26;26.40;97394.50;4920000;29;978;-75
2021/12/28 10:32:19;;;;;;;;;;;;;;;22.24;26.42;97399.88;4919777;29;1148;-74
2021/12/28 10:34:45;;;;;;;;;;;;;;;22.26;26.36;97403.00;4920110;29;946;-74
2021/12/28 10:37:17;;;;;;;;;;;;;;;21.55;27.48;97397.97;4926258;29;1015;-74
2021/12/28 10:39:44;;;;;;;;;;;;;;;22.23;26.66;97403.97;4958205;29;1906;-74
2021/12/28 10:42:09;;;;;;;;;;;;;;;22.14;26.52;97395.41;4912343;29;977;-74
2021/12/28 10:44:54;;;;;;;;;;;;;;;21.54;27.28;97398.41;4885354;29;979;-74
2021/12/28 10:47:24;;;;;;;;;;;;;;;21.72;27.11;97409.09;4919892;29;973;-74
2021/12/28 10:49:49;;;;;;;;;;;;;;;21.88;26.89;97417.38;4900792;29;991;-74
2021/12/28 10:52:26;;;;;;;;;;;;;;;21.88;27.10;97406.06;4901130;29;1032;-75
2021/12/28 10:54:55;;;;;;;;;;;;;;;21.45;27.67;97401.16;4900964;29;1095;-74
2021/12/28 10:57:20;;;;;;;;;;;;;;;21.52;27.48;97413.03;4900999;29;994;-74
2021/12/28 10:59:46;;;;;;;;;;;;;;;22.08;26.58;97408.56;4900419;29;1903;-74
2021/12/28 11:02:20;;;;;;;;;;;;;;;21.22;28.04;97405.94;4901009;29;1048;-74
2021/12/28 11:04:46;;;;;;;;;;;;;;;21.53;27.53;97413.81;4900575;29;965;-74
2021/12/28 11:07:11;;;;;;;;;;;;;;;22.10;26.59;97406.03;4900867;29;965;-74
2021/12/28 11:09:44;;;;;;;;;;;;;;;21.92;26.87;97405.94;4900692;29;1072;-74
2021/12/28 11:12:10;;;;;;;;;;;;;;;22.04;26.54;97419.22;4900395;29;982;-74
2021/12/28 11:14:35;;;;;;;;;;;;;;;21.73;27.35;97419.94;4900758;29;996;-74
2021/12/28 11:17:02;;;;;;;;;;;;;;;21.85;27.04;97416.25;4900365;29;1054;-74
2021/12/28 11:19:28;;;;;;;;;;;;;;;21.69;27.45;97410.78;4884397;29;1969;-74
2021/12/28 11:21:55;;;;;;;;;;;;;;;22.07;26.56;97418.28;4956476;29;973;-74
2021/12/28 11:24:20;;;;;;;;;;;;;;;21.66;27.37;97410.91;4959488;29;1032;-74
2021/12/28 11:26:49;;;;;;;;;;;;;;;21.49;27.49;97421.63;4928650;28;1004;-74
2021/12/28 11:29:35;;;;;;;;;;;;;;;21.36;28.00;97418.06;4978280;28;940;-74
2021/12/28 11:32:02;;;;;;;;;;;;;;;22.09;26.44;97404.47;4978813;28;973;-74
2021/12/28 11:34:29;;;;;;;;;;;;;;;21.89;26.96;97406.84;4979468;28;914;-74
2021/12/28 11:36:55;;;;;;;;;;;;;;;22.22;26.61;97405.19;4978345;28;1080;-74
2021/12/28 11:39:22;;;;;;;;;;;;;;;21.85;27.12;97402.09;4978589;28;1969;-74
2021/12/28 11:41:48;;;;;;;;;;;;;;;21.92;27.00;97389.72;4978513;28;895;-74
2021/12/28 11:44:13;;;;;;;;;;;;;;;21.96;26.85;97390.38;4937588;29;1076;-74
2021/12/28 11:46:39;;;;;;;;;;;;;;;21.60;27.65;97402.22;4937619;29;1139;-74
2021/12/28 11:49:06;;;;;;;;;;;;;;;21.87;26.99;97401.66;4937834;29;1016;-74
2021/12/28 11:51:34;;;;;;;;;;;;;;;22.24;26.34;97385.69;4937673;29;1008;-74
2021/12/28 11:54:00;;;;;;;;;;;;;;;22.26;26.49;97391.69;4937766;29;1009;-74
2021/12/28 11:56:27;;;;;;;;;;;;;;;22.29;26.11;97393.59;4937686;29;950;-74
2021/12/28 11:58:54;;;;;;;;;;;;;;;21.38;27.55;97390.09;4937488;29;1098;-74
2021/12/28 12:01:39;;;;;;;;;;;;;;;21.68;27.12;97386.56;4937730;29;1902;-74
2021/12/28 12:04:24;;;;;;;;;;;;;;;21.90;27.04;97375.22;4937488;29;1131;-73
2021/12/28 12:06:56;;;;;;;;;;;;;;;21.62;27.18;97371.41;4937268;29;968;-73
2021/12/28 12:09:22;;;;;;;;;;;;;;;21.40;27.83;97379.09;4937420;29;995;-74
2021/12/28 12:12:06;;;;;;;;;;;;;;;22.04;26.57;97379.56;4937132;29;1035;-74
2021/12/28 12:14:50;;;;;;;;;;;;;;;21.99;26.81;97375.28;4946193;28;937;-74
2021/12/28 12:17:30;;;;;;;;;;;;;;;21.34;27.82;97378.88;4970770;28;967;-74
2021/12/28 12:19:57;;;;;;;;;;;;;;;21.36;27.98;97376.41;4978026;28;1969;-74
2021/12/28 12:22:38;;;;;;;;;;;;;;;22.19;26.37;97379.84;4977738;28;957;-74
2021/12/28 12:25:04;;;;;;;;;;;;;;;21.67;27.04;97385.00;4960814;28;1244;-74
2021/12/28 12:27:48;;;;;;;;;;;;;;;21.33;27.90;97385.81;4978065;28;981;-74
2021/12/28 12:30:28;;;;;;;;;;;;;;;21.96;26.69;97383.91;4977901;28;931;-74
2021/12/28 12:33:06;;;;;;;;;;;;;;;22.19;26.63;97391.97;4977812;28;999;-74
2021/12/28 12:35:32;;;;;;;;;;;;;;;22.15;26.66;97402.63;4977692;28;1000;-74
2021/12/28 12:38:18;;;;;;;;;;;;;;;21.91;26.87;97401.50;4976479;28;1001;-73
2021/12/28 12:40:57;;;;;;;;;;;;;;;21.58;27.45;97404.72;4916948;29;1899;-73
2021/12/28 12:43:23;;;;;;;;;;;;;;;21.68;27.06;97411.25;4917685;29;1135;-74
2021/12/28 12:45:56;;;;;;;;;;;;;;;22.20;26.14;97416.22;4917383;29;1006;-74
2021/12/28 12:48:36;;;;;;;;;;;;;;;22.16;26.52;97409.88;4917846;29;1058;-74
2021/12/28 12:51:20;;;;;;;;;;;;;;;21.23;28.14;97407.53;4917872;29;1050;-74
2021/12/28 12:53:46;;;;;;;;;;;;;;;22.06;26.45;97416.72;4898537;29;979;-74
2021/12/28 12:56:15;;;;;;;;;;;;;;;22.21;26.14;97408.50;4883415;29;954;-74
2021/12/28 12:58:41;;;;;;;;;;;;;;;21.76;27.23;97418.22;4898666;29;1028;-74
2021/12/28 13:01:17;;;;;;;;;;;;;;;21.32;27.67;97410.47;4898468;29;1979;-74
2021/12/28 13:03:42;;;;;;;;;;;;;;;22.05;26.43;97409.47;4861115;29;1081;-74